Time;durP1;ratioP1;P1;durP2;ratioP2;P2;SDS_P1;SDS_P2;PMS_P1;PMS_P2;Temp;Humidity;BMP_temperature;BMP_pressure;BME280_temperature;BME280_humidity;BME280_pressure;Samples;Min_cycle;Max_cycle;Signal;HPM_P1;HPM_P2
2023/06/13 00:02:46;;;;;;;;;;;;;;;;;;5153128;27;19922;-69
2023/06/13 00:05:16;;;;;;;;;;;;;;;;;;5152536;27;19918;-69
2023/06/13 00:07:43;;;;;;;;;;;;;;;;;;5152907;27;19914;-68
2023/06/13 00:10:09;;;;;;;;;;;;;;;;;;5152795;27;19933;-70
2023/06/13 00:19:48;;;;;;;;;;;;;;;;;;5091246;27;20384;-69
2023/06/13 00:24:37;;;;;;;;;;;;;;;;;;5091617;27;19923;-69
2023/06/13 00:27:03;;;;;;;;;;;;;;;;;;5089743;28;19965;-69
2023/06/13 00:29:57;;;;;;;;;;;;;;;;;;5091610;27;19916;-68
2023/06/13 00:32:23;;;;;;;;;;;;;;;;;;5091324;28;20341;-69
2023/06/13 00:36:37;;;;;;;;;;;;;;;;;;5092376;27;19923;-68
2023/06/13 00:39:03;;;;;;;;;;;;;;;;;;5091411;28;19960;-69
2023/06/13 00:41:29;;;;;;;;;;;;;;;;;;5090916;28;19908;-68
2023/06/13 00:44:37;;;;;;;;;;;;;;;;;;5091760;28;19938;-68
2023/06/13 00:48:06;;;;;;;;;;;;;;;;;;5091045;27;19916;-67
2023/06/13 00:52:04;;;;;;;;;;;;;;;;;;5092132;27;19923;-67
2023/06/13 00:56:38;;;;;;;;;;;;;;;;;;5071438;28;20407;-67
2023/06/13 00:59:04;;;;;;;;;;;;;;;;;;5071464;28;19919;-67
2023/06/13 01:01:30;;;;;;;;;;;;;;;;;;5070687;28;19909;-68
2023/06/13 01:03:57;;;;;;;;;;;;;;;;;;5071378;28;20333;-67
2023/06/13 01:07:38;;;;;;;;;;;;;;;;;;5091138;27;20295;-67
2023/06/13 01:10:36;;;;;;;;;;;;;;;;;;5091579;27;19917;-68
2023/06/13 01:15:34;;;;;;;;;;;;;;;;;;5091217;28;20372;-67
2023/06/13 01:18:00;;;;;;;;;;;;;;;;;;5091359;28;19951;-67
2023/06/13 01:22:14;;;;;;;;;;;;;;;;;;5091439;28;19934;-68
2023/06/13 01:24:40;;;;;;;;;;;;;;;;;;5091932;28;20411;-67
2023/06/13 01:28:13;;;;;;;;;;;;;;;;;;5091804;27;20299;-68
2023/06/13 01:30:39;;;;;;;;;;;;;;;;;;5090960;28;19919;-68
2023/06/13 01:38:22;;;;;;;;;;;;;;;;;;5091806;27;19916;-67
2023/06/13 01:42:06;;;;;;;;;;;;;;;;;;5153023;27;20011;-68
2023/06/13 01:47:30;;;;;;;;;;;;;;;;;;5112091;27;20364;-67
2023/06/13 01:49:56;;;;;;;;;;;;;;;;;;5111395;28;19995;-68
2023/06/13 01:53:36;;;;;;;;;;;;;;;;;;5173973;27;19994;-67
2023/06/13 01:56:02;;;;;;;;;;;;;;;;;;5173737;27;19934;-68
2023/06/13 01:58:28;;;;;;;;;;;;;;;;;;5173461;27;20351;-68
2023/06/13 02:03:24;;;;;;;;;;;;;;;;;;5091456;27;20303;-68
2023/06/13 02:05:49;;;;;;;;;;;;;;;;;;5090933;28;19920;-68
2023/06/13 02:08:16;;;;;;;;;;;;;;;;;;5091335;28;20346;-69
2023/06/13 02:13:08;;;;;;;;;;;;;;;;;;5092239;27;20368;-68
2023/06/13 02:16:29;;;;;;;;;;;;;;;;;;5091978;28;19916;-67
2023/06/13 02:18:55;;;;;;;;;;;;;;;;;;5090978;28;19924;-67
2023/06/13 02:27:45;;;;;;;;;;;;;;;;;;5132811;27;20320;-68
2023/06/13 02:30:11;;;;;;;;;;;;;;;;;;5132278;28;19947;-68
2023/06/13 02:33:22;;;;;;;;;;;;;;;;;;5091131;27;19916;-69
2023/06/13 02:39:51;;;;;;;;;;;;;;;;;;5091496;28;19917;-69
2023/06/13 02:44:02;;;;;;;;;;;;;;;;;;5174231;27;19911;-69
2023/06/13 02:46:28;;;;;;;;;;;;;;;;;;5173458;27;19911;-69
2023/06/13 02:48:54;;;;;;;;;;;;;;;;;;5174009;27;19907;-69
2023/06/13 02:51:53;;;;;;;;;;;;;;;;;;5153629;27;20006;-67
2023/06/13 02:56:06;;;;;;;;;;;;;;;;;;5091711;28;20402;-69
2023/06/13 03:04:32;;;;;;;;;;;;;;;;;;5051972;28;19923;-68
2023/06/13 03:07:00;;;;;;;;;;;;;;;;;;5050803;28;19975;-69
2023/06/13 03:09:25;;;;;;;;;;;;;;;;;;5051217;28;19909;-69
2023/06/13 03:12:22;;;;;;;;;;;;;;;;;;5091555;27;19916;-67
2023/06/13 03:14:48;;;;;;;;;;;;;;;;;;5091175;28;20348;-68
2023/06/13 03:22:50;;;;;;;;;;;;;;;;;;5091267;27;20277;-67
2023/06/13 03:25:16;;;;;;;;;;;;;;;;;;5091729;28;19999;-68
2023/06/13 03:28:36;;;;;;;;;;;;;;;;;;5091655;27;19916;-68
2023/06/13 03:31:02;;;;;;;;;;;;;;;;;;5091399;28;19973;-67
2023/06/13 03:38:51;;;;;;;;;;;;;;;;;;4969526;28;19915;-69
2023/06/13 03:44:17;;;;;;;;;;;;;;;;;;5091020;28;19917;-68
2023/06/13 03:47:00;;;;;;;;;;;;;;;;;;5153052;27;20007;-69
2023/06/13 03:56:01;;;;;;;;;;;;;;;;;;5092215;27;19919;-68
2023/06/13 03:58:58;;;;;;;;;;;;;;;;;;5091931;27;19916;-68
2023/06/13 04:03:03;;;;;;;;;;;;;;;;;;5091707;28;20406;-68
2023/06/13 04:05:30;;;;;;;;;;;;;;;;;;5090966;28;19912;-68
2023/06/13 04:14:29;;;;;;;;;;;;;;;;;;5091412;28;19918;-69
2023/06/13 04:16:57;;;;;;;;;;;;;;;;;;5091376;28;20003;-68
2023/06/13 04:20:24;;;;;;;;;;;;;;;;;;5091940;27;19916;-69
2023/06/13 04:22:51;;;;;;;;;;;;;;;;;;5091349;28;19943;-69
2023/06/13 04:28:26;;;;;;;;;;;;;;;;;;5091911;27;19916;-69
2023/06/13 04:32:23;;;;;;;;;;;;;;;;;;5091471;27;19922;-69
2023/06/13 04:34:52;;;;;;;;;;;;;;;;;;5091334;28;20414;-69
2023/06/13 04:37:23;;;;;;;;;;;;;;;;;;5091511;28;20356;-71
2023/06/13 04:40:20;;;;;;;;;;;;;;;;;;5091228;28;19919;-69
2023/06/13 04:44:03;;;;;;;;;;;;;;;;;;5092114;27;19916;-68
2023/06/13 04:46:29;;;;;;;;;;;;;;;;;;5091044;28;19913;-71
2023/06/13 04:48:57;;;;;;;;;;;;;;;;;;5091290;28;19982;-68
2023/06/13 04:52:23;;;;;;;;;;;;;;;;;;5153516;27;20014;-69
2023/06/13 04:54:49;;;;;;;;;;;;;;;;;;5153094;27;20266;-68
2023/06/13 04:57:15;;;;;;;;;;;;;;;;;;5152915;27;19998;-67
2023/06/13 04:59:41;;;;;;;;;;;;;;;;;;5152355;27;19951;-68
2023/06/13 05:05:32;;;;;;;;;;;;;;;;;;5091862;28;19938;-67
2023/06/13 05:07:59;;;;;;;;;;;;;;;;;;5090847;28;20359;-68
2023/06/13 05:10:25;;;;;;;;;;;;;;;;;;5091182;28;19908;-67
2023/06/13 05:12:51;;;;;;;;;;;;;;;;;;5091198;28;19930;-67
2023/06/13 05:15:18;;;;;;;;;;;;;;;;;;5090612;28;20007;-67
2023/06/13 05:17:48;;;;;;;;;;;;;;;;;;5091572;28;19914;-67
2023/06/13 05:21:32;;;;;;;;;;;;;;;;;;5091066;27;19916;-65
2023/06/13 05:23:58;;;;;;;;;;;;;;;;;;5091354;28;20002;-70
2023/06/13 05:26:24;;;;;;;;;;;;;;;;;;5091166;28;19915;-71
2023/06/13 05:28:50;;;;;;;;;;;;;;;;;;5086764;28;19908;-64
2023/06/13 05:31:16;;;;;;;;;;;;;;;;;;5090464;28;19919;-64
2023/06/13 05:33:42;;;;;;;;;;;;;;;;;;5089881;28;19913;-64
2023/06/13 05:36:08;;;;;;;;;;;;;;;;;;5088165;28;19928;-63
2023/06/13 05:38:36;;;;;;;;;;;;;;;;;;5086802;28;20007;-62
2023/06/13 05:41:02;;;;;;;;;;;;;;;;;;5088274;28;19925;-63
2023/06/13 05:43:28;;;;;;;;;;;;;;;;;;5086715;28;19909;-63
2023/06/13 05:47:02;;;;;;;;;;;;;;;;;;5089613;27;20287;-63
2023/06/13 05:49:28;;;;;;;;;;;;;;;;;;5088051;28;19913;-63
2023/06/13 05:51:54;;;;;;;;;;;;;;;;;;5089798;28;20272;-62
2023/06/13 05:54:20;;;;;;;;;;;;;;;;;;5088621;28;19916;-63
2023/06/13 05:56:46;;;;;;;;;;;;;;;;;;5088034;28;20451;-64
2023/06/13 06:00:19;;;;;;;;;;;;;;;;;;5083450;27;19926;-66
2023/06/13 06:02:45;;;;;;;;;;;;;;;;;;5086037;28;19912;-66
2023/06/13 06:05:11;;;;;;;;;;;;;;;;;;5086337;28;19970;-66
2023/06/13 06:07:37;;;;;;;;;;;;;;;;;;5088410;28;20344;-65
2023/06/13 06:10:03;;;;;;;;;;;;;;;;;;5087906;28;19916;-65
2023/06/13 06:12:30;;;;;;;;;;;;;;;;;;5086701;28;19916;-64
2023/06/13 06:18:53;;;;;;;;;;;;;;;;;;5087910;27;19912;-64
2023/06/13 06:21:19;;;;;;;;;;;;;;;;;;5067656;28;19966;-65
2023/06/13 06:24:45;;;;;;;;;;;;;;;;;;5080491;27;19920;-64
2023/06/13 06:29:27;;;;;;;;;;;;;;;;;;5149811;27;19911;-64
2023/06/13 06:31:52;;;;;;;;;;;;;;;;;;5142437;27;19969;-64
2023/06/13 06:34:18;;;;;;;;;;;;;;;;;;5143708;27;19988;-66
2023/06/13 06:36:44;;;;;;;;;;;;;;;;;;5132393;27;19922;-64
2023/06/13 06:39:11;;;;;;;;;;;;;;;;;;5148849;27;19913;-64
2023/06/13 06:41:37;;;;;;;;;;;;;;;;;;5150965;27;19989;-65
2023/06/13 06:44:02;;;;;;;;;;;;;;;;;;5151976;27;19961;-64
2023/06/13 06:46:28;;;;;;;;;;;;;;;;;;5145403;27;19994;-64
2023/06/13 06:48:54;;;;;;;;;;;;;;;;;;5119182;28;19922;-64
2023/06/13 06:51:20;;;;;;;;;;;;;;;;;;5135170;27;19922;-62
2023/06/13 06:56:50;;;;;;;;;;;;;;;;;;5078258;28;19926;-64
2023/06/13 06:59:16;;;;;;;;;;;;;;;;;;5087062;28;19916;-65
2023/06/13 07:01:42;;;;;;;;;;;;;;;;;;5089624;28;20405;-65
2023/06/13 07:05:48;;;;;;;;;;;;;;;;;;5121850;27;19922;-65
2023/06/13 07:08:14;;;;;;;;;;;;;;;;;;5106522;28;20395;-65
2023/06/13 07:10:41;;;;;;;;;;;;;;;;;;5108962;28;19912;-65
2023/06/13 07:13:07;;;;;;;;;;;;;;;;;;5108933;28;20200;-65
2023/06/13 07:15:33;;;;;;;;;;;;;;;;;;5109775;28;19918;-64
2023/06/13 07:17:59;;;;;;;;;;;;;;;;;;5107884;28;19965;-65
2023/06/13 07:20:26;;;;;;;;;;;;;;;;;;5108807;28;19916;-67
2023/06/13 07:22:52;;;;;;;;;;;;;;;;;;5103257;28;20395;-65
2023/06/13 07:25:18;;;;;;;;;;;;;;;;;;5104141;28;19970;-65
2023/06/13 07:27:44;;;;;;;;;;;;;;;;;;5101946;28;19986;-66
2023/06/13 07:30:10;;;;;;;;;;;;;;;;;;5104716;28;20306;-65
2023/06/13 07:32:36;;;;;;;;;;;;;;;;;;5097148;28;19912;-66
2023/06/13 07:35:03;;;;;;;;;;;;;;;;;;5093150;28;19966;-64
2023/06/13 07:37:28;;;;;;;;;;;;;;;;;;5111851;28;19911;-63
2023/06/13 07:39:54;;;;;;;;;;;;;;;;;;5107119;28;19909;-64
2023/06/13 07:42:20;;;;;;;;;;;;;;;;;;5104597;28;19976;-64
2023/06/13 07:47:18;;;;;;;;;;;;;;;;;;4862170;27;7374319;-66
2023/06/13 07:49:44;;;;;;;;;;;;;;;;;;5107049;28;19928;-66
2023/06/13 07:52:10;;;;;;;;;;;;;;;;;;5080253;28;19916;-64
2023/06/13 07:54:37;;;;;;;;;;;;;;;;;;5116285;28;19922;-65
2023/06/13 07:57:02;;;;;;;;;;;;;;;;;;5116966;28;19950;-64
2023/06/13 08:01:42;;;;;;;;;;;;;;;;;;5103930;27;19924;-68
2023/06/13 08:06:33;;;;;;;;;;;;;;;;;;5144691;27;20402;-66
2023/06/13 08:08:59;;;;;;;;;;;;;;;;;;5136401;27;19912;-66
2023/06/13 08:11:25;;;;;;;;;;;;;;;;;;5126633;28;20333;-66
2023/06/13 08:15:10;;;;;;;;;;;;;;;;;;5101254;27;19917;-65
2023/06/13 08:17:37;;;;;;;;;;;;;;;;;;5096748;27;19920;-69
2023/06/13 08:21:55;;;;;;;;;;;;;;;;;;5084145;27;19920;-66
2023/06/13 08:24:21;;;;;;;;;;;;;;;;;;5080421;28;20384;-66
2023/06/13 08:26:49;;;;;;;;;;;;;;;;;;5085575;28;19916;-66
2023/06/13 08:31:04;;;;;;;;;;;;;;;;;;5126652;27;19925;-65
2023/06/13 08:34:21;;;;;;;;;;;;;;;;;;5130844;27;19926;-65
2023/06/13 08:36:47;;;;;;;;;;;;;;;;;;5128776;28;20360;-66
2023/06/13 08:41:32;;;;;;;;;;;;;;;;;;5097150;27;19921;-66
2023/06/13 08:43:58;;;;;;;;;;;;;;;;;;5079539;28;20637;-65
2023/06/13 08:46:24;;;;;;;;;;;;;;;;;;5064498;28;20008;-65
2023/06/13 08:48:54;;;;;;;;;;;;;;;;;;5065262;28;20011;-66
2023/06/13 08:51:20;;;;;;;;;;;;;;;;;;5078891;28;19959;-69
2023/06/13 08:53:47;;;;;;;;;;;;;;;;;;5080848;28;19927;-68
2023/06/13 08:56:13;;;;;;;;;;;;;;;;;;5068686;28;20007;-70
2023/06/13 08:58:39;;;;;;;;;;;;;;;;;;5062102;28;20011;-70
2023/06/13 09:03:20;;;;;;;;;;;;;;;;;;5129725;27;19920;-70
2023/06/13 09:05:46;;;;;;;;;;;;;;;;;;5125566;28;19923;-71
2023/06/13 09:08:11;;;;;;;;;;;;;;;;;;5125718;28;19957;-64
2023/06/13 09:10:37;;;;;;;;;;;;;;;;;;5119332;28;19955;-66
2023/06/13 09:13:03;;;;;;;;;;;;;;;;;;5116551;28;20005;-64
2023/06/13 09:15:29;;;;;;;;;;;;;;;;;;5122923;28;19912;-65
2023/06/13 09:17:57;;;;;;;;;;;;;;;;;;5113038;28;20002;-63
2023/06/13 09:22:38;;;;;;;;;;;;;;;;;;5126565;27;19916;-62
2023/06/13 09:25:05;;;;;;;;;;;;;;;;;;5123155;28;20574;-63
2023/06/13 09:29:05;;;;;;;;;;;;;;;;;;5086176;28;19927;-64
2023/06/13 09:31:31;;;;;;;;;;;;;;;;;;5083931;28;19913;-63
2023/06/13 09:33:57;;;;;;;;;;;;;;;;;;5087128;28;19930;-64
2023/06/13 09:36:24;;;;;;;;;;;;;;;;;;5087289;28;19956;-63
2023/06/13 09:40:37;;;;;;;;;;;;;;;;;;5083222;28;20020;-64
2023/06/13 09:43:03;;;;;;;;;;;;;;;;;;5085730;28;19913;-63
2023/06/13 09:45:29;;;;;;;;;;;;;;;;;;5076482;28;19940;-64
2023/06/13 09:48:13;;;;;;;;;;;;;;;;;;5131883;27;19915;-65
2023/06/13 09:50:40;;;;;;;;;;;;;;;;;;5130206;28;19920;-64
2023/06/13 09:53:07;;;;;;;;;;;;;;;;;;5120958;28;19916;-66
2023/06/13 09:55:33;;;;;;;;;;;;;;;;;;5113335;28;19923;-64
2023/06/13 09:58:01;;;;;;;;;;;;;;;;;;5128408;28;20625;-65
2023/06/13 10:02:57;;;;;;;;;;;;;;;;;;5148725;27;19926;-64
2023/06/13 10:05:23;;;;;;;;;;;;;;;;;;5136549;27;19916;-62
2023/06/13 10:07:49;;;;;;;;;;;;;;;;;;5109826;27;20450;-63
2023/06/13 10:16:52;;;;;;;;;;;;;;;;;;5136030;27;19924;-63
2023/06/13 10:19:19;;;;;;;;;;;;;;;;;;5137250;27;19911;-62
2023/06/13 10:26:15;;;;;;;;;;;;;;;;;;5086937;27;20332;-64
2023/06/13 10:29:41;;;;;;;;;;;;;;;;;;5087693;27;19924;-64
2023/06/13 10:32:06;;;;;;;;;;;;;;;;;;5082330;28;20284;-62
2023/06/13 10:34:34;;;;;;;;;;;;;;;;;;5077176;28;20000;-64
2023/06/13 10:38:14;;;;;;;;;;;;;;;;;;5135442;27;19930;-64
2023/06/13 10:40:40;;;;;;;;;;;;;;;;;;5128325;28;19919;-63
2023/06/13 10:44:54;;;;;;;;;;;;;;;;;;5035197;27;2395278;-64
2023/06/13 10:50:35;;;;;;;;;;;;;;;;;;5087630;27;19923;-63
2023/06/13 10:53:01;;;;;;;;;;;;;;;;;;5086962;28;20376;-63
2023/06/13 10:56:15;;;;;;;;;;;;;;;;;;5087288;27;19934;-63
2023/06/13 11:04:58;;;;;;;;;;;;;;;;;;5107841;27;20384;-66
2023/06/13 11:07:24;;;;;;;;;;;;;;;;;;5101767;28;19922;-65
2023/06/13 11:09:50;;;;;;;;;;;;;;;;;;5108348;28;20316;-65
2023/06/13 11:12:16;;;;;;;;;;;;;;;;;;5106618;28;19958;-65
2023/06/13 11:14:42;;;;;;;;;;;;;;;;;;5108730;28;20368;-65
2023/06/13 11:17:08;;;;;;;;;;;;;;;;;;5107541;28;19966;-63
2023/06/13 11:19:34;;;;;;;;;;;;;;;;;;5106206;28;20372;-64
2023/06/13 11:22:00;;;;;;;;;;;;;;;;;;5099929;28;20023;-63
2023/06/13 11:24:27;;;;;;;;;;;;;;;;;;5127050;28;19927;-64
2023/06/13 11:26:53;;;;;;;;;;;;;;;;;;5129259;27;20321;-64
2023/06/13 11:29:19;;;;;;;;;;;;;;;;;;5118992;27;19918;-63
2023/06/13 11:31:45;;;;;;;;;;;;;;;;;;5112070;28;20388;-63
2023/06/13 11:34:11;;;;;;;;;;;;;;;;;;5107354;28;20412;-64
2023/06/13 11:36:37;;;;;;;;;;;;;;;;;;5107882;28;20421;-65
2023/06/13 11:39:03;;;;;;;;;;;;;;;;;;5108081;28;20369;-63
2023/06/13 11:41:29;;;;;;;;;;;;;;;;;;5107691;28;19969;-63
2023/06/13 11:43:55;;;;;;;;;;;;;;;;;;5108085;28;19916;-63
2023/06/13 11:46:21;;;;;;;;;;;;;;;;;;5124684;28;19959;-63
2023/06/13 11:48:47;;;;;;;;;;;;;;;;;;5111602;28;19920;-65
2023/06/13 11:51:13;;;;;;;;;;;;;;;;;;5109834;27;19916;-63
2023/06/13 11:53:39;;;;;;;;;;;;;;;;;;5109772;28;19916;-63
2023/06/13 11:56:05;;;;;;;;;;;;;;;;;;5109513;28;19916;-65
2023/06/13 11:58:31;;;;;;;;;;;;;;;;;;5109028;28;19928;-65
2023/06/13 12:00:58;;;;;;;;;;;;;;;;;;5109600;28;19957;-66
2023/06/13 12:03:25;;;;;;;;;;;;;;;;;;5098907;28;19935;-66
2023/06/13 12:05:52;;;;;;;;;;;;;;;;;;5110026;28;19974;-66
2023/06/13 12:08:18;;;;;;;;;;;;;;;;;;5109788;28;20007;-65
2023/06/13 12:10:44;;;;;;;;;;;;;;;;;;5109379;28;19912;-65
2023/06/13 12:13:11;;;;;;;;;;;;;;;;;;5109826;28;19950;-65
2023/06/13 12:15:37;;;;;;;;;;;;;;;;;;5100046;28;19913;-64
2023/06/13 12:18:03;;;;;;;;;;;;;;;;;;5096247;28;19919;-65
2023/06/13 12:20:29;;;;;;;;;;;;;;;;;;5083877;28;19920;-68
2023/06/13 12:22:55;;;;;;;;;;;;;;;;;;5095698;28;19916;-68
2023/06/13 12:25:21;;;;;;;;;;;;;;;;;;5092739;28;19959;-68
2023/06/13 12:27:50;;;;;;;;;;;;;;;;;;5086000;28;19951;-69
2023/06/13 12:30:17;;;;;;;;;;;;;;;;;;5093573;28;20469;-66
2023/06/13 12:32:43;;;;;;;;;;;;;;;;;;5094083;28;19951;-66
2023/06/13 12:35:09;;;;;;;;;;;;;;;;;;5091552;28;19948;-67
2023/06/13 12:37:37;;;;;;;;;;;;;;;;;;5085952;28;19973;-66
2023/06/13 12:40:06;;;;;;;;;;;;;;;;;;5095007;28;20002;-68
2023/06/13 12:42:32;;;;;;;;;;;;;;;;;;5095642;28;19913;-65
2023/06/13 12:44:58;;;;;;;;;;;;;;;;;;5093671;28;20295;-67
2023/06/13 12:47:24;;;;;;;;;;;;;;;;;;5094609;28;19915;-65
2023/06/13 12:49:50;;;;;;;;;;;;;;;;;;5094959;28;20356;-66
2023/06/13 12:52:16;;;;;;;;;;;;;;;;;;5098727;28;19919;-67
2023/06/13 12:54:42;;;;;;;;;;;;;;;;;;5104504;28;19912;-67
2023/06/13 12:57:10;;;;;;;;;;;;;;;;;;5094350;28;19915;-65
2023/06/13 12:59:36;;;;;;;;;;;;;;;;;;5093126;28;19912;-71
2023/06/13 13:02:02;;;;;;;;;;;;;;;;;;5093786;28;19909;-69
2023/06/13 13:04:28;;;;;;;;;;;;;;;;;;5093066;28;19930;-71
2023/06/13 13:06:56;;;;;;;;;;;;;;;;;;5092296;28;20513;-72
2023/06/13 13:09:22;;;;;;;;;;;;;;;;;;5093107;28;20361;-72
2023/06/13 13:11:48;;;;;;;;;;;;;;;;;;5093261;28;20007;-72
2023/06/13 13:14:14;;;;;;;;;;;;;;;;;;5093988;28;19915;-72
2023/06/13 13:16:40;;;;;;;;;;;;;;;;;;5094304;28;19912;-72
2023/06/13 13:19:06;;;;;;;;;;;;;;;;;;5094363;28;19908;-72
2023/06/13 13:21:32;;;;;;;;;;;;;;;;;;5095346;28;19908;-72
2023/06/13 13:23:59;;;;;;;;;;;;;;;;;;5095454;28;19973;-72
2023/06/13 13:26:25;;;;;;;;;;;;;;;;;;5094058;28;20376;-71
2023/06/13 13:28:51;;;;;;;;;;;;;;;;;;5095424;28;19908;-71
2023/06/13 13:31:17;;;;;;;;;;;;;;;;;;5095505;28;20284;-72
2023/06/13 13:33:43;;;;;;;;;;;;;;;;;;5094877;28;20011;-71
2023/06/13 13:36:09;;;;;;;;;;;;;;;;;;5095609;28;19915;-71
2023/06/13 13:38:35;;;;;;;;;;;;;;;;;;5095232;28;19908;-71
2023/06/13 13:41:01;;;;;;;;;;;;;;;;;;5095024;28;19908;-71
2023/06/13 13:43:27;;;;;;;;;;;;;;;;;;5095039;28;19923;-71
2023/06/13 13:45:53;;;;;;;;;;;;;;;;;;5095129;28;19908;-73
2023/06/13 13:48:19;;;;;;;;;;;;;;;;;;5094701;28;19908;-71
2023/06/13 13:50:46;;;;;;;;;;;;;;;;;;5095315;28;19912;-71
2023/06/13 13:53:14;;;;;;;;;;;;;;;;;;5095049;28;19958;-71
2023/06/13 13:55:40;;;;;;;;;;;;;;;;;;5094549;28;19908;-71
2023/06/13 13:58:09;;;;;;;;;;;;;;;;;;5095284;28;19908;-71
2023/06/13 14:00:35;;;;;;;;;;;;;;;;;;5094775;28;19912;-71
2023/06/13 14:03:01;;;;;;;;;;;;;;;;;;5094012;28;20395;-71
2023/06/13 14:05:27;;;;;;;;;;;;;;;;;;5094764;28;19908;-71
2023/06/13 14:07:52;;;;;;;;;;;;;;;;;;5094659;28;19953;-71
2023/06/13 14:10:18;;;;;;;;;;;;;;;;;;5094317;28;19953;-71
2023/06/13 14:12:45;;;;;;;;;;;;;;;;;;5094605;28;19908;-71
2023/06/13 14:15:11;;;;;;;;;;;;;;;;;;5094233;28;19909;-71
2023/06/13 14:17:36;;;;;;;;;;;;;;;;;;5094508;28;19908;-71
2023/06/13 14:20:03;;;;;;;;;;;;;;;;;;5094507;28;19908;-71
2023/06/13 14:22:29;;;;;;;;;;;;;;;;;;5093989;28;19912;-71
2023/06/13 14:24:55;;;;;;;;;;;;;;;;;;5094314;28;20019;-71
2023/06/13 14:27:21;;;;;;;;;;;;;;;;;;5094383;28;19953;-71
2023/06/13 14:29:47;;;;;;;;;;;;;;;;;;5093897;28;19908;-71
2023/06/13 14:32:13;;;;;;;;;;;;;;;;;;5094248;28;20364;-71
2023/06/13 14:34:39;;;;;;;;;;;;;;;;;;5094473;28;19930;-71
2023/06/13 14:37:05;;;;;;;;;;;;;;;;;;5093752;28;19950;-71
2023/06/13 14:39:31;;;;;;;;;;;;;;;;;;5092608;28;19916;-71
2023/06/13 14:41:57;;;;;;;;;;;;;;;;;;5092824;28;19991;-71
2023/06/13 14:44:22;;;;;;;;;;;;;;;;;;5093597;28;19939;-72
2023/06/13 14:46:48;;;;;;;;;;;;;;;;;;5094088;28;20371;-71
2023/06/13 14:49:14;;;;;;;;;;;;;;;;;;5094043;28;20299;-71
2023/06/13 14:51:41;;;;;;;;;;;;;;;;;;5092244;28;19908;-71
2023/06/13 14:54:07;;;;;;;;;;;;;;;;;;5094072;28;19914;-71
2023/06/13 14:56:33;;;;;;;;;;;;;;;;;;5093959;28;19990;-71
2023/06/13 14:58:59;;;;;;;;;;;;;;;;;;5093592;28;19908;-71
2023/06/13 15:01:25;;;;;;;;;;;;;;;;;;5093902;28;20364;-71
2023/06/13 15:03:51;;;;;;;;;;;;;;;;;;5093580;28;19928;-71
2023/06/13 15:06:18;;;;;;;;;;;;;;;;;;5093580;28;19915;-72
2023/06/13 15:08:44;;;;;;;;;;;;;;;;;;5093848;28;19995;-72
2023/06/13 15:11:10;;;;;;;;;;;;;;;;;;5093786;28;20269;-72
2023/06/13 15:13:36;;;;;;;;;;;;;;;;;;5093377;28;20049;-72
2023/06/13 15:16:02;;;;;;;;;;;;;;;;;;5094337;28;19916;-72
2023/06/13 15:18:33;;;;;;;;;;;;;;;;;;5093395;28;19912;-73
2023/06/13 15:20:59;;;;;;;;;;;;;;;;;;5093689;28;20314;-72
2023/06/13 15:23:26;;;;;;;;;;;;;;;;;;5093707;28;19923;-71
2023/06/13 15:25:52;;;;;;;;;;;;;;;;;;5093271;28;19916;-71
2023/06/13 15:28:18;;;;;;;;;;;;;;;;;;5093692;28;19912;-72
2023/06/13 15:30:44;;;;;;;;;;;;;;;;;;5093672;28;19908;-72
2023/06/13 15:33:10;;;;;;;;;;;;;;;;;;5093175;28;19948;-72
2023/06/13 15:35:36;;;;;;;;;;;;;;;;;;5093509;28;19908;-71
2023/06/13 15:38:02;;;;;;;;;;;;;;;;;;5092310;28;19909;-72
2023/06/13 15:40:28;;;;;;;;;;;;;;;;;;5093161;28;19912;-72
2023/06/13 15:42:54;;;;;;;;;;;;;;;;;;5093424;28;19909;-71
2023/06/13 15:45:20;;;;;;;;;;;;;;;;;;5093532;28;19912;-72
2023/06/13 15:47:46;;;;;;;;;;;;;;;;;;5093071;28;19916;-71
2023/06/13 15:50:12;;;;;;;;;;;;;;;;;;5094660;28;19908;-72
2023/06/13 15:52:38;;;;;;;;;;;;;;;;;;5097230;28;19913;-72
2023/06/13 15:55:04;;;;;;;;;;;;;;;;;;5096859;28;19915;-72
2023/06/13 15:57:30;;;;;;;;;;;;;;;;;;5097239;28;19908;-72
2023/06/13 15:59:56;;;;;;;;;;;;;;;;;;5097241;28;19961;-72
2023/06/13 16:02:22;;;;;;;;;;;;;;;;;;5095468;28;19912;-73
2023/06/13 16:04:48;;;;;;;;;;;;;;;;;;5096809;28;19924;-72
2023/06/13 16:07:14;;;;;;;;;;;;;;;;;;5097034;28;19951;-72
2023/06/13 16:09:40;;;;;;;;;;;;;;;;;;5096621;28;19908;-71
2023/06/13 16:12:06;;;;;;;;;;;;;;;;;;5097229;28;19912;-72
2023/06/13 16:14:32;;;;;;;;;;;;;;;;;;5096906;28;19908;-71
2023/06/13 16:16:58;;;;;;;;;;;;;;;;;;5096486;28;19999;-72
2023/06/13 16:19:24;;;;;;;;;;;;;;;;;;5096862;28;19908;-72
2023/06/13 16:23:17;;;;;;;;;;;;;;;;;;5091273;27;19916;-71
2023/06/13 16:25:43;;;;;;;;;;;;;;;;;;5091493;28;19912;-71
2023/06/13 16:28:09;;;;;;;;;;;;;;;;;;5091289;28;20372;-72
2023/06/13 16:30:37;;;;;;;;;;;;;;;;;;5090858;28;19908;-71
2023/06/13 16:33:03;;;;;;;;;;;;;;;;;;5091220;28;19909;-71
2023/06/13 16:35:29;;;;;;;;;;;;;;;;;;5091184;28;19908;-71
2023/06/13 16:37:55;;;;;;;;;;;;;;;;;;5090696;28;19915;-71
2023/06/13 16:40:21;;;;;;;;;;;;;;;;;;5091060;28;19908;-71
2023/06/13 16:42:47;;;;;;;;;;;;;;;;;;5090733;28;19927;-72
2023/06/13 16:45:50;;;;;;;;;;;;;;;;;;5153380;27;19919;-72
2023/06/13 16:48:16;;;;;;;;;;;;;;;;;;5152481;27;19919;-71
2023/06/13 16:50:42;;;;;;;;;;;;;;;;;;5152420;27;19914;-71
2023/06/13 16:54:52;;;;;;;;;;;;;;;;;;5152882;27;20375;-70
2023/06/13 16:57:18;;;;;;;;;;;;;;;;;;5152749;27;19911;-70
2023/06/13 17:01:59;;;;;;;;;;;;;;;;;;5152942;27;20001;-71
2023/06/13 17:05:43;;;;;;;;;;;;;;;;;;5090958;27;19916;-70
2023/06/13 17:11:56;;;;;;;;;;;;;;;;;;5152657;27;19912;-70
2023/06/13 17:14:22;;;;;;;;;;;;;;;;;;5152867;27;19957;-72
2023/06/13 17:16:48;;;;;;;;;;;;;;;;;;5152833;27;19911;-70
2023/06/13 17:19:16;;;;;;;;;;;;;;;;;;5133844;27;19913;-71
2023/06/13 17:21:42;;;;;;;;;;;;;;;;;;5152742;27;20384;-71
2023/06/13 17:24:09;;;;;;;;;;;;;;;;;;5152736;27;19915;-70
2023/06/13 17:26:35;;;;;;;;;;;;;;;;;;5152360;27;20355;-71
2023/06/13 17:29:01;;;;;;;;;;;;;;;;;;5151044;27;19929;-72
2023/06/13 17:31:26;;;;;;;;;;;;;;;;;;5131824;27;20272;-72
2023/06/13 17:33:52;;;;;;;;;;;;;;;;;;5150082;27;19998;-72
2023/06/13 17:36:18;;;;;;;;;;;;;;;;;;5150357;27;19911;-71
2023/06/13 17:38:44;;;;;;;;;;;;;;;;;;5150367;27;19908;-71
2023/06/13 17:41:44;;;;;;;;;;;;;;;;;;5089213;27;19916;-72
2023/06/13 17:44:11;;;;;;;;;;;;;;;;;;5089175;28;20280;-72
2023/06/13 17:46:37;;;;;;;;;;;;;;;;;;5090974;28;19934;-71
2023/06/13 17:51:16;;;;;;;;;;;;;;;;;;5091754;27;19926;-71
2023/06/13 17:53:42;;;;;;;;;;;;;;;;;;5090963;28;20003;-70
2023/06/13 17:56:08;;;;;;;;;;;;;;;;;;5090922;28;19954;-70
2023/06/13 17:58:35;;;;;;;;;;;;;;;;;;5091404;28;19915;-71
2023/06/13 18:01:03;;;;;;;;;;;;;;;;;;5090780;28;19915;-70
2023/06/13 18:03:29;;;;;;;;;;;;;;;;;;5091125;28;19909;-71
2023/06/13 18:05:55;;;;;;;;;;;;;;;;;;5090976;28;19909;-71
2023/06/13 18:08:29;;;;;;;;;;;;;;;;;;5077426;27;2109178;-70
2023/06/13 18:10:55;;;;;;;;;;;;;;;;;;5152539;27;19911;-71
2023/06/13 18:13:21;;;;;;;;;;;;;;;;;;5134281;27;20316;-71
2023/06/13 18:15:47;;;;;;;;;;;;;;;;;;5152406;27;19908;-72
2023/06/13 18:18:13;;;;;;;;;;;;;;;;;;5152834;27;19953;-72
2023/06/13 18:20:39;;;;;;;;;;;;;;;;;;5152714;27;20006;-71
2023/06/13 18:23:06;;;;;;;;;;;;;;;;;;5152317;27;19908;-71
2023/06/13 18:25:32;;;;;;;;;;;;;;;;;;5152597;27;19907;-70
2023/06/13 18:27:58;;;;;;;;;;;;;;;;;;5134022;27;20268;-72
2023/06/13 18:32:21;;;;;;;;;;;;;;;;;;5091463;27;19916;-72
2023/06/13 18:34:47;;;;;;;;;;;;;;;;;;5091545;28;20355;-72
2023/06/13 18:37:13;;;;;;;;;;;;;;;;;;5090785;28;19970;-72
2023/06/13 18:40:55;;;;;;;;;;;;;;;;;;5153349;27;19921;-73
2023/06/13 18:43:23;;;;;;;;;;;;;;;;;;5152736;27;19912;-73
2023/06/13 18:46:38;;;;;;;;;;;;;;;;;;5153317;27;19915;-72
2023/06/13 18:49:04;;;;;;;;;;;;;;;;;;5152868;27;20347;-71
2023/06/13 18:51:30;;;;;;;;;;;;;;;;;;5152524;27;19914;-71
2023/06/13 18:53:56;;;;;;;;;;;;;;;;;;5152777;27;19914;-71
2023/06/13 18:56:22;;;;;;;;;;;;;;;;;;5152708;27;19975;-72
2023/06/13 18:58:49;;;;;;;;;;;;;;;;;;5152315;27;19998;-71
2023/06/13 19:03:20;;;;;;;;;;;;;;;;;;5091431;27;19923;-72
2023/06/13 19:07:06;;;;;;;;;;;;;;;;;;5153002;27;20002;-73
2023/06/13 19:09:32;;;;;;;;;;;;;;;;;;5152921;27;19911;-72
2023/06/13 19:11:58;;;;;;;;;;;;;;;;;;5152407;27;19933;-73
2023/06/13 19:14:24;;;;;;;;;;;;;;;;;;5152701;27;19908;-71
2023/06/13 19:16:51;;;;;;;;;;;;;;;;;;5152984;27;19918;-72
2023/06/13 19:19:33;;;;;;;;;;;;;;;;;;5091123;27;19939;-71
2023/06/13 19:21:59;;;;;;;;;;;;;;;;;;5091338;28;19954;-72
2023/06/13 19:24:24;;;;;;;;;;;;;;;;;;5091326;28;19912;-72
2023/06/13 19:26:50;;;;;;;;;;;;;;;;;;5090937;28;19913;-72
2023/06/13 19:31:03;;;;;;;;;;;;;;;;;;5091613;27;20373;-71
2023/06/13 19:33:29;;;;;;;;;;;;;;;;;;5089902;28;20334;-71
2023/06/13 19:35:58;;;;;;;;;;;;;;;;;;5089227;28;19943;-72
2023/06/13 19:38:25;;;;;;;;;;;;;;;;;;5089256;28;20402;-72
2023/06/13 19:45:47;;;;;;;;;;;;;;;;;;5090809;28;19919;-72
2023/06/13 19:49:15;;;;;;;;;;;;;;;;;;5091344;27;19939;-72
2023/06/13 19:51:41;;;;;;;;;;;;;;;;;;5091568;28;19913;-72
2023/06/13 19:54:07;;;;;;;;;;;;;;;;;;5090887;28;19908;-72
2023/06/13 19:56:34;;;;;;;;;;;;;;;;;;5091298;28;19909;-71
2023/06/13 20:00:32;;;;;;;;;;;;;;;;;;5091466;28;20295;-72
2023/06/13 20:04:30;;;;;;;;;;;;;;;;;;5092036;27;19916;-72